University of Wyoming, Wyoming
Current Conditions -  °F | °C
As of 9:53 PM on Monday 20 Oct 2014 (Local Time) from KLAR Reporting Station
Clear Clear  
Wind Chill: 41°   Ceiling: Unl
Heat Index: 41°   Visibility: 10mi
Dew Point: 33°   Wind: 0mph
Humidity: 73%   Direction: NA
Pressure: 30.15"   Gusts: NA
Location:  41.4218°N, 105.605°W
Report Text: KLAR 210353Z AUTO 00000KT 10SM CLR 05/01 A3015 RMK AO2 SLP149 T00500006
Loading
Personal Weather Stations






























Interactive Weather Map
Tropical Storm Tracking
New forecast layout! Learn more

10-Day Weather Forecast

Advertisements
Track Severe Weather on mobile